createdAt,value
2018-07-28T00:02:01.281Z,14.73
2018-07-28T00:07:05.293Z,10.50
2018-07-28T00:12:09.885Z,16.85
2018-07-28T00:17:13.481Z,13.90
2018-07-28T00:22:17.458Z,10.72
2018-07-28T00:27:21.417Z,11.83
2018-07-28T00:32:25.236Z,11.73
2018-07-28T00:37:28.744Z,15.32
2018-07-28T00:42:32.827Z,12.98
2018-07-28T00:47:36.950Z,11.50
2018-07-28T00:52:40.797Z,12.10
2018-07-28T00:57:44.330Z,11.28
2018-07-28T01:02:47.918Z,12.18
2018-07-28T01:07:51.410Z,11.95
2018-07-28T01:12:54.973Z,11.78
2018-07-28T01:17:58.924Z,11.48
2018-07-28T01:23:02.995Z,13.30
2018-07-28T01:28:06.850Z,12.88
2018-07-28T01:33:10.843Z,15.58
2018-07-28T01:38:15.689Z,12.07
2018-07-28T01:43:19.549Z,14.03
2018-07-28T01:48:23.127Z,14.50
2018-07-28T01:53:26.765Z,14.30
2018-07-28T01:58:30.308Z,13.90
2018-07-28T02:03:34.098Z,15.28
2018-07-28T02:08:37.785Z,15.48
2018-07-28T02:13:41.707Z,13.83
2018-07-28T02:18:45.391Z,14.55
2018-07-28T02:23:49.004Z,13.15
2018-07-28T02:28:53.219Z,13.32
2018-07-28T02:33:57.010Z,14.00
2018-07-28T02:39:00.698Z,13.08
2018-07-28T02:44:04.777Z,15.83
2018-07-28T02:49:09.073Z,13.20
2018-07-28T02:54:13.035Z,15.00
2018-07-28T02:59:17.160Z,12.35
2018-07-28T03:04:21.343Z,12.37
2018-07-28T03:09:25.159Z,12.28
2018-07-28T03:14:28.851Z,11.75
2018-07-28T03:19:32.630Z,13.90
2018-07-28T03:24:36.689Z,12.90
2018-07-28T03:29:40.438Z,13.60
2018-07-28T03:34:43.951Z,14.15
2018-07-28T03:39:47.606Z,12.40
2018-07-28T03:44:51.778Z,12.45
2018-07-28T03:49:55.386Z,13.58
2018-07-28T03:54:58.989Z,13.35
2018-07-28T04:00:05.589Z,13.08
2018-07-28T04:05:11.286Z,12.65
2018-07-28T04:10:14.871Z,15.07
2018-07-28T04:15:18.550Z,12.47
2018-07-28T04:20:23.686Z,12.90
2018-07-28T04:25:27.327Z,13.08
2018-07-28T04:30:30.979Z,15.05
2018-07-28T04:35:34.474Z,13.68
2018-07-28T04:40:38.514Z,12.50
2018-07-28T04:45:42.059Z,12.73
2018-07-28T04:50:45.883Z,11.63
2018-07-28T04:55:49.457Z,11.57
2018-07-28T05:00:53.026Z,12.43
2018-07-28T05:05:56.743Z,14.95
2018-07-28T05:11:00.342Z,13.08
2018-07-28T05:16:03.958Z,12.58
2018-07-28T05:21:07.916Z,13.60
2018-07-28T05:26:11.700Z,13.08
2018-07-28T05:31:15.735Z,13.22
2018-07-28T05:36:19.288Z,13.00
2018-07-28T05:41:22.797Z,13.03
2018-07-28T05:46:26.909Z,14.10
2018-07-28T05:51:30.998Z,13.90
2018-07-28T05:56:34.658Z,19.30
2018-07-28T06:01:38.411Z,16.25
2018-07-28T06:06:42.077Z,13.28
2018-07-28T06:11:46.312Z,14.03
2018-07-28T06:16:50.078Z,14.43
2018-07-28T06:21:54.477Z,14.60
2018-07-28T06:26:58.006Z,14.03
2018-07-28T06:32:01.721Z,13.25
2018-07-28T06:37:06.825Z,12.18
2018-07-28T06:42:10.906Z,12.85
2018-07-28T06:47:15.016Z,12.40
2018-07-28T06:52:18.936Z,15.15
2018-07-28T06:57:23.275Z,15.45
2018-07-28T07:02:33.345Z,11.57
2018-07-28T07:07:37.898Z,12.10
2018-07-28T07:12:42.154Z,11.28
2018-07-28T07:17:46.479Z,11.33
2018-07-28T07:22:51.769Z,12.07
2018-07-28T07:27:55.859Z,13.53
2018-07-28T07:33:00.562Z,9.23
2018-07-28T07:38:06.522Z,9.48
2018-07-28T07:43:11.054Z,9.73
2018-07-28T07:48:15.444Z,9.20
2018-07-28T07:53:19.589Z,8.78
2018-07-28T07:58:24.133Z,11.00
2018-07-28T08:03:28.528Z,8.38
2018-07-28T08:08:32.848Z,8.30
2018-07-28T08:13:36.958Z,7.90
2018-07-28T08:18:41.514Z,7.72
2018-07-28T08:23:45.996Z,6.78
2018-07-28T08:28:50.014Z,10.78
2018-07-28T08:33:54.348Z,5.85
2018-07-28T08:38:58.488Z,8.75
2018-07-28T08:44:02.762Z,6.10
2018-07-28T08:49:06.974Z,7.67
2018-07-28T08:54:11.205Z,5.97
2018-07-28T08:59:15.483Z,6.30
2018-07-28T09:09:29.680Z,6.47
2018-07-28T09:14:34.015Z,8.30
2018-07-28T09:19:38.341Z,6.03
2018-07-28T09:24:42.819Z,6.10
2018-07-28T09:29:47.153Z,5.85
2018-07-28T09:34:51.172Z,5.92
2018-07-28T09:39:55.387Z,5.87
2018-07-28T09:44:59.538Z,6.50
2018-07-28T09:50:08.301Z,7.28
2018-07-28T09:55:13.657Z,5.55
2018-07-28T10:00:23.447Z,6.03
2018-07-28T10:05:27.774Z,4.85
2018-07-28T10:10:31.966Z,5.17
2018-07-28T10:15:36.705Z,6.20
2018-07-28T10:20:41.121Z,5.00
2018-07-28T10:25:45.547Z,7.30
2018-07-28T10:30:49.820Z,4.75
2018-07-28T10:35:54.744Z,4.67
2018-07-28T10:41:00.762Z,5.58
2018-07-28T10:46:06.233Z,5.35
2018-07-28T10:51:11.407Z,5.50
2018-07-28T10:56:16.395Z,5.55
2018-07-28T11:01:21.048Z,5.17
2018-07-28T11:06:28.260Z,5.92
2018-07-28T11:11:33.418Z,4.25
2018-07-28T11:16:37.619Z,4.80
2018-07-28T11:21:43.675Z,5.15
2018-07-28T11:26:47.777Z,4.67
2018-07-28T11:32:02.795Z,4.30
2018-07-28T11:37:48.798Z,5.85
2018-07-28T11:43:03.526Z,4.72
2018-07-28T11:48:08.563Z,8.28
2018-07-28T11:53:13.939Z,4.92
2018-07-28T11:58:18.478Z,4.55
2018-07-28T12:03:22.826Z,4.57
2018-07-28T12:08:27.925Z,4.75
2018-07-28T12:13:31.846Z,4.17
2018-07-28T12:18:35.668Z,3.55
2018-07-28T12:23:40.444Z,3.83
2018-07-28T12:28:44.941Z,3.40
2018-07-28T12:33:48.945Z,2.77
2018-07-28T12:38:52.926Z,6.60
2018-07-28T12:43:57.568Z,3.15
2018-07-28T12:49:01.973Z,8.13
2018-07-28T12:54:05.965Z,4.25
2018-07-28T12:59:10.172Z,3.02
2018-07-28T13:04:14.466Z,3.05
2018-07-28T13:09:18.665Z,2.70
2018-07-28T13:14:24.283Z,3.87
2018-07-28T13:19:29.859Z,3.10
2018-07-28T13:24:34.315Z,3.20
2018-07-28T13:29:39.508Z,2.52
2018-07-28T13:34:43.819Z,2.83
2018-07-28T13:39:48.374Z,7.35
2018-07-28T13:44:53.278Z,4.15
2018-07-28T13:49:57.318Z,6.00
2018-07-28T13:55:04.168Z,5.95
2018-07-28T14:00:08.581Z,4.05
2018-07-28T14:05:12.565Z,4.67
2018-07-28T14:10:16.748Z,5.50
2018-07-28T14:15:20.982Z,4.58
2018-07-28T14:20:25.173Z,10.10
2018-07-28T14:25:29.330Z,8.20
2018-07-28T14:30:33.833Z,8.95
2018-07-28T14:35:39.112Z,13.28
2018-07-28T14:40:43.139Z,13.68
2018-07-28T14:45:46.855Z,10.95
2018-07-28T14:50:55.994Z,12.53
2018-07-28T14:56:01.622Z,11.53
2018-07-28T15:01:06.157Z,13.40
2018-07-28T15:06:10.849Z,9.90
2018-07-28T15:11:15.066Z,15.83
2018-07-28T15:16:18.784Z,7.33
2018-07-28T15:21:22.781Z,6.30
2018-07-28T15:26:27.023Z,5.85
2018-07-28T15:31:31.431Z,6.45
2018-07-28T15:36:35.757Z,6.28
2018-07-28T15:41:39.994Z,7.75
2018-07-28T15:46:44.370Z,6.67
2018-07-28T15:51:49.397Z,6.87
2018-07-28T15:56:53.661Z,7.05
2018-07-28T16:01:57.854Z,8.28
2018-07-28T16:07:01.923Z,6.83
2018-07-28T16:12:06.130Z,6.62
2018-07-28T16:17:10.223Z,7.35
2018-07-28T16:22:14.459Z,11.93
2018-07-28T16:27:18.468Z,8.20
2018-07-28T16:32:22.476Z,9.15
2018-07-28T16:37:26.465Z,6.55
2018-07-28T16:42:30.544Z,7.62
2018-07-28T16:47:35.164Z,6.10
2018-07-28T16:52:38.729Z,6.70
2018-07-28T16:57:42.432Z,6.35
2018-07-28T17:02:46.547Z,10.30
2018-07-28T17:07:51.091Z,11.78
2018-07-28T17:12:54.644Z,6.78
2018-07-28T17:17:59.242Z,7.92
2018-07-28T17:23:03.168Z,9.10
2018-07-28T17:28:06.970Z,7.67
2018-07-28T17:33:11.145Z,6.90
2018-07-28T17:38:15.078Z,5.80
2018-07-28T17:43:18.823Z,7.78
2018-07-28T17:48:22.883Z,6.33
2018-07-28T17:53:26.754Z,6.17
2018-07-28T17:58:30.334Z,5.78
2018-07-28T18:03:34.159Z,5.65
2018-07-28T18:08:37.778Z,10.28
2018-07-28T18:13:41.374Z,6.35
2018-07-28T18:18:45.088Z,7.53
2018-07-28T18:23:49.120Z,7.33
2018-07-28T18:28:53.564Z,7.50
2018-07-28T18:33:57.569Z,8.63
2018-07-28T18:39:01.482Z,6.25
2018-07-28T18:44:05.175Z,7.00
2018-07-28T18:49:09.393Z,5.92
2018-07-28T18:54:13.031Z,7.42
2018-07-28T18:59:17.170Z,7.28
2018-07-28T19:04:20.909Z,8.50
2018-07-28T19:09:31.042Z,6.80
2018-07-28T19:14:37.177Z,6.65
2018-07-28T19:19:40.762Z,6.85
2018-07-28T19:24:44.446Z,7.90
2018-07-28T19:29:48.016Z,8.48
2018-07-28T19:34:52.519Z,9.70
2018-07-28T19:39:56.078Z,10.15
2018-07-28T19:45:01.426Z,7.10
2018-07-28T19:50:07.649Z,7.65
2018-07-28T19:55:11.469Z,8.33
2018-07-28T20:00:15.527Z,7.00
2018-07-28T20:05:22.285Z,6.75
2018-07-28T20:10:26.505Z,7.53
2018-07-28T20:15:30.065Z,7.75
2018-07-28T20:20:33.750Z,9.45
2018-07-28T20:25:37.782Z,8.63
2018-07-28T20:30:41.330Z,10.40
2018-07-28T20:35:44.941Z,6.83
2018-07-28T20:40:48.715Z,7.42
2018-07-28T20:45:52.484Z,7.03
2018-07-28T20:50:56.284Z,7.70
2018-07-28T20:55:59.795Z,9.78
2018-07-28T21:01:04.202Z,7.40
2018-07-28T21:06:07.798Z,6.47
2018-07-28T21:11:11.525Z,6.50
2018-07-28T21:16:15.372Z,8.80
2018-07-28T21:21:18.923Z,7.08
2018-07-28T21:26:22.642Z,5.62
2018-07-28T21:31:26.727Z,7.20
2018-07-28T21:36:30.234Z,9.03
2018-07-28T21:41:34.155Z,6.60
2018-07-28T21:46:38.014Z,6.75
2018-07-28T21:51:41.619Z,5.15
2018-07-28T21:56:45.850Z,7.15
2018-07-28T22:01:49.718Z,5.75
2018-07-28T22:06:53.653Z,6.08
2018-07-28T22:11:57.457Z,4.97
2018-07-28T22:17:01.875Z,6.33
2018-07-28T22:22:05.402Z,5.03
2018-07-28T22:27:08.998Z,8.75
2018-07-28T22:32:12.568Z,8.33
2018-07-28T22:37:16.100Z,9.10
2018-07-28T22:42:20.466Z,5.20
2018-07-28T22:47:23.995Z,2.65
2018-07-28T22:52:27.593Z,3.50
2018-07-28T22:57:31.436Z,4.17
2018-07-28T23:02:35.541Z,3.40
2018-07-28T23:07:39.445Z,3.20
2018-07-28T23:12:43.308Z,3.85
2018-07-28T23:17:47.597Z,4.77
2018-07-28T23:22:51.154Z,3.98
2018-07-28T23:27:54.744Z,3.47
2018-07-28T23:32:58.500Z,4.50
2018-07-28T23:38:02.504Z,5.08
2018-07-28T23:43:06.473Z,3.62
2018-07-28T23:48:10.002Z,2.60
2018-07-28T23:53:14.063Z,3.20
2018-07-28T23:58:17.922Z,3.92
